Flag for China

Past Weather in 31°34'00"N, 120°17'59"E, China — Yesterday and Last 2 Weeks

Currently: 63 °F. Passing clouds. (Weather station: Shanghai Hongqiao Airport, China). See more current weather

Past Weather in 31°34'00"N, 120°17'59"E — Graph

°F

31°34'00"N, 120°17'59"E Temperature Yesterday

Maximum temperature yesterday: 72 °F (at 3:00 pm)
Minimum temperature yesterday: 59 °F (at 5:30 am)
Average temperature yesterday: 65 °F

High & Low Weather Summary for the Past Weeks

 TemperatureHumidityPressure
High82 °F (Apr 15, 2:00 pm)100% (Apr 15, 5:00 am)30.24 "Hg (Apr 15, 5:00 am)
Low48 °F (Apr 9, 6:00 am)24% (Apr 18, 3:30 pm)29.62 "Hg (Apr 20, 12:30 am)
Average65 °F75%29.92 "Hg
* Reported Apr 9 6:00 am — Apr 24 6:30 am, 31°34'00"N, 120°17'59"E. Weather by CustomWeather, © 2024

Note: Actual official high and low records may vary slightly from our data, if they occured in-between our weather recording intervals... More about our weather records

31°34'00"N, 120°17'59"E Weather History for the Previous 24 Hours

Scroll right to see more
 ConditionsComfort  
Time TempWeatherWind HumidityBarometerVisibility
6:30 am
Wed, Apr 24
61 °FSunny.1 mph77%29.92 "Hg10 mi
6:00 am59 °FSunny.No wind72%29.92 "Hg10 mi
5:30 am59 °FSunny.1 mph72%29.92 "Hg10 mi
5:00 am57 °FClear.6 mph77%29.89 "Hg10 mi
4:30 am59 °FClear.6 mph77%29.89 "Hg10 mi
4:00 am59 °FClear.6 mph77%29.89 "Hg10 mi
3:30 am59 °FClear.8 mph77%29.86 "Hg10 mi
3:00 am61 °FClear.8 mph68%29.86 "Hg10 mi
2:30 am64 °FClear.10 mph60%29.86 "Hg10 mi
2:00 am64 °FPassing clouds.10 mph64%29.86 "HgN/A
1:30 am66 °FPassing clouds.8 mph78%29.86 "Hg5 mi
1:00 am64 °FPassing clouds.8 mph88%29.86 "Hg5 mi
12:30 am64 °FClear.6 mph88%29.86 "Hg5 mi
12:00 am64 °FClear.3 mph88%29.86 "Hg5 mi
11:30 pm
Tue, Apr 23
64 °FClear.3 mph83%29.86 "Hg10 mi
11:00 pm64 °FPassing clouds.3 mph83%29.86 "HgN/A
10:30 pm66 °FPassing clouds.6 mph78%29.86 "HgN/A
9:30 pm66 °FPassing clouds.6 mph78%29.86 "HgN/A
9:00 pm64 °FPassing clouds.3 mph83%29.86 "HgN/A
8:30 pm66 °FClear.3 mph78%29.83 "Hg10 mi
8:00 pm66 °FClear.3 mph78%29.83 "Hg10 mi
7:30 pm68 °FClear.3 mph73%29.80 "Hg10 mi
7:00 pm66 °FPassing clouds.6 mph78%29.80 "HgN/A
6:30 pm68 °FPassing clouds.6 mph69%29.80 "HgN/A
6:00 pm68 °FPassing clouds.8 mph69%29.80 "HgN/A
5:30 pm70 °FPartly sunny.6 mph64%29.77 "HgN/A
5:00 pm72 °FPartly sunny.6 mph61%29.77 "HgN/A
4:30 pm72 °FPartly sunny.8 mph65%29.77 "HgN/A
4:00 pm72 °FPartly sunny.6 mph65%29.77 "HgN/A
3:30 pm72 °FScattered clouds.3 mph61%29.77 "HgN/A
3:00 pm72 °FScattered clouds.6 mph61%29.77 "HgN/A
2:30 pm70 °FPartly sunny.3 mph64%29.77 "HgN/A
2:00 pm70 °FPartly sunny.1 mph64%29.77 "HgN/A
1:30 pm68 °FPartly sunny.3 mph78%29.77 "HgN/A
1:00 pm66 °FPartly sunny.1 mph73%29.80 "HgN/A
12:30 pm66 °FPartly sunny.1 mph73%29.83 "HgN/A
12:00 pm66 °FPartly sunny.3 mph73%29.80 "HgN/A
11:30 am64 °FPartly sunny.3 mph83%29.83 "HgN/A
11:00 am63 °FPartly sunny.3 mph88%29.83 "HgN/A
10:30 am63 °FSprinkles. Partly sunny.3 mph88%29.83 "Hg4 mi
9:30 am63 °FScattered clouds.6 mph88%29.86 "HgN/A
9:00 am63 °FScattered clouds.6 mph88%29.83 "Hg5 mi
8:30 am61 °FSprinkles. Partly sunny.3 mph88%29.83 "Hg4 mi
8:00 am59 °FSprinkles. Fog.1 mph94%29.83 "Hg3 mi
7:30 am61 °FSprinkles. Fog.8 mph88%29.83 "Hg3 mi
7:00 am59 °FSprinkles. Fog.1 mph94%29.83 "Hg3 mi
Weather by CustomWeather, © 2024

See weather overview